createdAt,value
2023-03-03T00:00:26.495Z,70.87
2023-03-03T00:01:26.714Z,70.97
2023-03-03T00:02:26.889Z,71.00
2023-03-03T00:03:27.146Z,70.90
2023-03-03T00:04:27.230Z,71.11
2023-03-03T00:05:27.404Z,71.42
2023-03-03T00:06:27.569Z,71.34
2023-03-03T00:07:27.732Z,71.97
2023-03-03T00:08:27.893Z,72.07
2023-03-03T00:09:28.069Z,71.97
2023-03-03T00:10:28.220Z,71.97
2023-03-03T00:11:28.426Z,71.97
2023-03-03T00:12:28.614Z,71.86
2023-03-03T00:13:28.770Z,71.86
2023-03-03T00:14:28.931Z,71.97
2023-03-03T00:15:29.097Z,71.97
2023-03-03T00:16:29.267Z,71.76
2023-03-03T00:17:29.437Z,72.07
2023-03-03T00:18:29.588Z,71.97
2023-03-03T00:19:29.771Z,71.97
2023-03-03T00:20:29.945Z,71.97
2023-03-03T00:21:30.133Z,71.86
2023-03-03T00:22:30.304Z,71.97
2023-03-03T00:23:30.456Z,72.07
2023-03-03T00:24:30.619Z,72.07
2023-03-03T00:25:30.813Z,72.00
2023-03-03T00:26:30.985Z,72.11
2023-03-03T00:27:31.134Z,72.11
2023-03-03T00:28:31.299Z,72.11
2023-03-03T00:29:31.456Z,72.31
2023-03-03T00:30:31.617Z,72.00
2023-03-03T00:31:31.924Z,72.11
2023-03-03T00:32:32.041Z,72.07
2023-03-03T00:33:32.108Z,71.86
2023-03-03T00:34:32.266Z,71.76
2023-03-03T00:35:32.461Z,71.66
2023-03-03T00:36:32.624Z,71.55
2023-03-03T00:37:32.769Z,71.66
2023-03-03T00:38:32.927Z,71.55
2023-03-03T00:39:33.084Z,71.59
2023-03-03T00:40:33.279Z,71.55
2023-03-03T00:41:33.416Z,71.76
2023-03-03T00:42:33.576Z,71.86
2023-03-03T00:43:33.737Z,71.66
2023-03-03T00:44:33.887Z,71.45
2023-03-03T00:45:34.067Z,71.55
2023-03-03T00:46:34.272Z,71.24
2023-03-03T00:47:34.417Z,70.93
2023-03-03T00:48:34.574Z,70.75
2023-03-03T00:49:34.746Z,70.86
2023-03-03T00:50:34.904Z,70.86
2023-03-03T00:51:35.084Z,70.86
2023-03-03T00:52:35.234Z,71.17
2023-03-03T00:53:35.401Z,71.38
2023-03-03T00:54:35.554Z,71.28
2023-03-03T00:55:35.742Z,71.38
2023-03-03T00:56:35.904Z,71.48
2023-03-03T00:57:36.066Z,71.80
2023-03-03T00:58:36.240Z,71.80
2023-03-03T00:59:36.411Z,71.90
2023-03-03T01:00:36.569Z,72.00
2023-03-03T01:01:36.761Z,72.00
2023-03-03T01:02:36.921Z,72.00
2023-03-03T01:03:37.058Z,71.80
2023-03-03T01:04:37.212Z,71.80
2023-03-03T01:05:37.386Z,71.80
2023-03-03T01:06:37.562Z,71.80
2023-03-03T01:07:37.725Z,71.90
2023-03-03T01:08:37.882Z,71.90
2023-03-03T01:09:38.077Z,71.69
2023-03-03T01:10:38.244Z,71.38
2023-03-03T01:11:38.413Z,71.48
2023-03-03T01:12:38.591Z,71.59
2023-03-03T01:13:38.741Z,71.28
2023-03-03T01:14:38.901Z,71.24
2023-03-03T01:15:39.094Z,71.24
2023-03-03T01:16:39.241Z,71.03
2023-03-03T01:17:39.391Z,70.83
2023-03-03T01:18:39.562Z,70.72
2023-03-03T01:19:39.722Z,70.72
2023-03-03T01:20:39.894Z,70.72
2023-03-03T01:21:40.070Z,70.51
2023-03-03T01:22:40.220Z,70.54
2023-03-03T01:23:40.381Z,70.86
2023-03-03T01:24:40.599Z,70.86
2023-03-03T01:25:40.746Z,70.75
2023-03-03T01:26:40.912Z,70.75
2023-03-03T01:27:41.099Z,70.97
2023-03-03T01:28:41.305Z,71.17
2023-03-03T01:29:41.451Z,71.17
2023-03-03T01:30:41.608Z,71.17
2023-03-03T01:31:41.846Z,71.03
2023-03-03T01:32:41.951Z,70.93
2023-03-03T01:33:42.109Z,70.83
2023-03-03T01:34:42.269Z,70.62
2023-03-03T01:35:42.473Z,70.51
2023-03-03T01:36:42.612Z,70.10
2023-03-03T01:37:42.768Z,69.89
2023-03-03T01:38:42.967Z,70.20
2023-03-03T01:39:43.127Z,70.10
2023-03-03T01:40:43.288Z,70.10
2023-03-03T01:41:43.458Z,70.20
2023-03-03T01:42:43.648Z,70.10
2023-03-03T01:43:43.776Z,70.10
2023-03-03T01:44:43.952Z,70.20
2023-03-03T01:45:44.096Z,70.20
2023-03-03T01:46:44.405Z,70.20
2023-03-03T01:47:44.425Z,70.31
2023-03-03T01:48:44.606Z,70.31
2023-03-03T01:49:44.746Z,70.00
2023-03-03T01:50:44.907Z,69.79
2023-03-03T01:51:45.087Z,69.68
2023-03-03T01:52:45.245Z,69.68
2023-03-03T01:53:45.403Z,69.58
2023-03-03T01:54:45.593Z,69.58
2023-03-03T01:55:45.754Z,69.27
2023-03-03T01:56:45.934Z,69.17
2023-03-03T01:57:46.092Z,69.17
2023-03-03T01:58:46.291Z,69.17
2023-03-03T01:59:46.463Z,69.37
2023-03-03T02:00:46.661Z,69.58
2023-03-03T02:01:46.874Z,69.61
2023-03-03T02:02:47.050Z,69.61
2023-03-03T02:03:47.144Z,69.58
2023-03-03T02:04:47.355Z,69.37
2023-03-03T02:05:47.510Z,69.48
2023-03-03T02:06:47.730Z,69.58
2023-03-03T02:07:47.858Z,69.48
2023-03-03T02:08:48.067Z,69.37
2023-03-03T02:09:48.201Z,69.48
2023-03-03T02:10:48.365Z,69.48
2023-03-03T02:11:48.537Z,69.48
2023-03-03T02:12:48.703Z,69.68
2023-03-03T02:13:48.863Z,69.68
2023-03-03T02:14:49.033Z,69.79
2023-03-03T02:15:49.238Z,69.58
2023-03-03T02:16:49.393Z,69.68
2023-03-03T02:17:49.563Z,69.68
2023-03-03T02:18:49.725Z,69.68
2023-03-03T02:19:49.884Z,69.58
2023-03-03T02:20:50.056Z,69.48
2023-03-03T02:21:50.257Z,69.37
2023-03-03T02:22:50.419Z,69.34
2023-03-03T02:23:50.576Z,69.37
2023-03-03T02:24:50.756Z,69.27
2023-03-03T02:25:50.907Z,69.27
2023-03-03T02:26:51.107Z,69.48
2023-03-03T02:27:51.266Z,69.48
2023-03-03T02:28:51.426Z,69.37
2023-03-03T02:29:51.589Z,69.27
2023-03-03T02:30:51.760Z,69.58
2023-03-03T02:31:52.001Z,69.58
2023-03-03T02:32:52.101Z,69.37
2023-03-03T02:33:52.277Z,69.48
2023-03-03T02:34:52.439Z,69.34
2023-03-03T02:35:52.626Z,69.45
2023-03-03T02:36:52.792Z,69.55
2023-03-03T02:37:52.946Z,69.55
2023-03-03T02:38:53.119Z,69.24
2023-03-03T02:39:53.296Z,69.13
2023-03-03T02:40:53.478Z,69.24
2023-03-03T02:41:53.660Z,69.34
2023-03-03T02:42:53.816Z,69.45
2023-03-03T02:43:53.975Z,69.45
2023-03-03T02:44:54.157Z,69.45
2023-03-03T02:45:54.339Z,69.45
2023-03-03T02:46:54.506Z,69.31
2023-03-03T02:47:54.652Z,69.31
2023-03-03T02:48:54.833Z,69.21
2023-03-03T02:49:55.006Z,69.21
2023-03-03T02:50:55.157Z,69.21
2023-03-03T02:51:55.349Z,69.21
2023-03-03T02:52:55.496Z,69.10
2023-03-03T02:53:55.658Z,69.10
2023-03-03T02:54:55.818Z,69.00
2023-03-03T02:55:55.970Z,69.00
2023-03-03T02:56:56.155Z,69.21
2023-03-03T02:57:56.317Z,69.21
2023-03-03T02:58:56.490Z,69.31
2023-03-03T02:59:56.644Z,69.21
2023-03-03T03:00:56.846Z,69.21
2023-03-03T03:01:56.994Z,69.21
2023-03-03T03:02:57.146Z,69.07
2023-03-03T03:03:57.330Z,69.07
2023-03-03T03:04:57.473Z,68.96
2023-03-03T03:05:57.639Z,68.96
2023-03-03T03:06:57.805Z,69.07
2023-03-03T03:07:57.962Z,69.10
2023-03-03T03:08:58.124Z,69.10
2023-03-03T03:09:58.323Z,69.31
2023-03-03T03:10:58.453Z,69.27
2023-03-03T03:11:58.644Z,69.17
2023-03-03T03:12:58.802Z,69.17
2023-03-03T03:13:58.952Z,69.17
2023-03-03T03:14:59.114Z,69.17
2023-03-03T03:15:59.274Z,69.07
2023-03-03T03:16:59.574Z,69.07
2023-03-03T03:17:59.594Z,69.07
2023-03-03T03:18:59.755Z,69.27
2023-03-03T03:19:59.913Z,69.27
2023-03-03T03:21:00.104Z,69.42
2023-03-03T03:22:00.264Z,69.31
2023-03-03T03:23:00.433Z,69.42
2023-03-03T03:24:00.591Z,69.42
2023-03-03T03:25:00.751Z,69.52
2023-03-03T03:26:00.915Z,69.62
2023-03-03T03:27:01.120Z,69.73
2023-03-03T03:28:01.274Z,69.62
2023-03-03T03:29:01.542Z,69.62
2023-03-03T03:30:01.630Z,69.73
2023-03-03T03:31:01.837Z,69.83
2023-03-03T03:32:01.983Z,69.83
2023-03-03T03:33:02.142Z,69.65
2023-03-03T03:34:02.292Z,69.76
2023-03-03T03:35:02.461Z,69.86
2023-03-03T03:36:02.625Z,70.07
2023-03-03T03:37:02.821Z,70.28
2023-03-03T03:38:02.980Z,70.28
2023-03-03T03:39:03.138Z,70.38
2023-03-03T03:40:03.301Z,70.28
2023-03-03T03:41:03.457Z,70.28
2023-03-03T03:42:03.630Z,70.48
2023-03-03T03:43:03.791Z,70.48
2023-03-03T03:44:03.952Z,70.48
2023-03-03T03:45:04.152Z,70.38
2023-03-03T03:46:04.347Z,70.38
2023-03-03T03:47:04.517Z,70.38
2023-03-03T03:48:04.707Z,70.35
2023-03-03T03:49:04.847Z,70.25
2023-03-03T03:50:04.998Z,70.25
2023-03-03T03:51:05.195Z,70.25
2023-03-03T03:52:05.364Z,70.25
2023-03-03T03:53:05.531Z,70.04
2023-03-03T03:54:05.688Z,70.14
2023-03-03T03:55:05.863Z,70.14
2023-03-03T03:56:06.018Z,70.14
2023-03-03T03:57:06.260Z,70.25
2023-03-03T03:58:06.395Z,70.25
2023-03-03T03:59:06.552Z,70.35
2023-03-03T04:00:06.713Z,70.25
2023-03-03T04:01:06.915Z,70.25
2023-03-03T04:02:07.168Z,70.25
2023-03-03T04:03:07.446Z,70.14
2023-03-03T04:04:07.433Z,70.04
2023-03-03T04:05:07.595Z,70.04
2023-03-03T04:06:07.742Z,69.90
2023-03-03T04:07:09.273Z,69.93
2023-03-03T04:08:08.095Z,69.79
2023-03-03T04:09:08.290Z,69.79
2023-03-03T04:10:08.444Z,69.79
2023-03-03T04:11:08.610Z,69.69
2023-03-03T04:12:08.795Z,69.59
2023-03-03T04:13:08.973Z,69.69
2023-03-03T04:14:09.116Z,69.79
2023-03-03T04:15:09.274Z,69.69
2023-03-03T04:16:09.506Z,69.69
2023-03-03T04:17:09.623Z,69.59
2023-03-03T04:18:09.780Z,69.69
2023-03-03T04:19:09.954Z,69.69
2023-03-03T04:20:10.114Z,69.73
2023-03-03T04:21:10.276Z,69.83
2023-03-03T04:22:10.454Z,69.93
2023-03-03T04:23:10.621Z,69.93
2023-03-03T04:24:10.777Z,70.04
2023-03-03T04:25:10.943Z,70.04
2023-03-03T04:26:11.105Z,70.25
2023-03-03T04:27:11.295Z,70.25
2023-03-03T04:28:11.451Z,70.25
2023-03-03T04:29:11.642Z,70.25
2023-03-03T04:30:11.792Z,70.35
2023-03-03T04:31:11.997Z,70.35
2023-03-03T04:32:12.192Z,70.35
2023-03-03T04:33:12.294Z,70.45
2023-03-03T04:34:12.451Z,70.56
2023-03-03T04:35:12.626Z,70.56
2023-03-03T04:36:12.776Z,70.56
2023-03-03T04:37:12.961Z,70.66
2023-03-03T04:38:13.118Z,70.56
2023-03-03T04:39:13.330Z,70.45
2023-03-03T04:40:13.462Z,70.45
2023-03-03T04:41:13.681Z,70.45
2023-03-03T04:42:13.834Z,70.25
2023-03-03T04:43:13.980Z,70.35
2023-03-03T04:44:14.192Z,70.25
2023-03-03T04:45:14.342Z,70.25
2023-03-03T04:46:14.549Z,70.14
2023-03-03T04:47:14.681Z,70.14
2023-03-03T04:48:14.840Z,70.14
2023-03-03T04:49:15.000Z,70.04
2023-03-03T04:50:15.159Z,70.04
2023-03-03T04:51:15.321Z,69.93
2023-03-03T04:52:15.511Z,69.93
2023-03-03T04:53:15.680Z,69.93
2023-03-03T04:54:15.829Z,69.83
2023-03-03T04:55:16.007Z,70.04
2023-03-03T04:56:16.178Z,70.04
2023-03-03T04:57:16.368Z,70.04
2023-03-03T04:58:16.489Z,70.14
2023-03-03T04:59:16.659Z,70.14
2023-03-03T05:00:16.809Z,70.04
2023-03-03T05:01:17.056Z,70.04
2023-03-03T05:02:17.166Z,70.04
2023-03-03T05:03:17.327Z,70.00
2023-03-03T05:04:17.501Z,70.00
2023-03-03T05:05:17.648Z,69.90
2023-03-03T05:06:17.804Z,69.90
2023-03-03T05:07:17.983Z,69.79
2023-03-03T05:08:18.138Z,69.79
2023-03-03T05:09:18.302Z,69.79
2023-03-03T05:10:18.461Z,69.79
2023-03-03T05:11:18.619Z,69.69
2023-03-03T05:12:18.798Z,69.69
2023-03-03T05:13:18.964Z,69.59
2023-03-03T05:14:19.127Z,69.69
2023-03-03T05:15:19.294Z,69.59
2023-03-03T05:16:19.457Z,69.48
2023-03-03T05:17:19.650Z,69.69
2023-03-03T05:18:19.809Z,69.69
2023-03-03T05:19:20.007Z,69.79
2023-03-03T05:20:20.168Z,69.69
2023-03-03T05:21:20.357Z,69.79
2023-03-03T05:22:20.541Z,69.79
2023-03-03T05:23:20.697Z,69.69
2023-03-03T05:24:20.861Z,69.59
2023-03-03T05:25:21.025Z,69.48
2023-03-03T05:26:21.188Z,69.48
2023-03-03T05:27:21.381Z,69.27
2023-03-03T05:28:21.534Z,69.17
2023-03-03T05:29:21.751Z,69.17
2023-03-03T05:30:21.882Z,69.17
2023-03-03T05:31:22.112Z,69.17
2023-03-03T05:32:22.352Z,69.07
2023-03-03T05:33:22.406Z,69.17
2023-03-03T05:34:22.600Z,69.07
2023-03-03T05:35:22.795Z,69.17
2023-03-03T05:36:22.938Z,69.17
2023-03-03T05:37:23.122Z,69.17
2023-03-03T05:38:23.272Z,69.27
2023-03-03T05:39:23.489Z,69.27
2023-03-03T05:40:23.625Z,69.38
2023-03-03T05:41:23.813Z,69.27
2023-03-03T05:42:24.063Z,69.24
2023-03-03T05:43:24.155Z,69.14
2023-03-03T05:44:24.341Z,69.14
2023-03-03T05:45:24.522Z,69.04
2023-03-03T05:46:24.735Z,68.73
2023-03-03T05:47:24.870Z,68.83
2023-03-03T05:48:25.032Z,68.83
2023-03-03T05:49:25.210Z,68.83
2023-03-03T05:50:25.388Z,68.83
2023-03-03T05:51:25.569Z,69.07
2023-03-03T05:52:25.774Z,69.14
2023-03-03T05:53:25.909Z,69.14
2023-03-03T05:54:26.097Z,69.14
2023-03-03T05:55:26.270Z,69.04
2023-03-03T05:56:26.463Z,68.93
2023-03-03T05:57:26.669Z,69.04
2023-03-03T05:58:26.835Z,69.04
2023-03-03T05:59:26.980Z,69.24
2023-03-03T06:00:27.158Z,69.38
2023-03-03T06:01:27.358Z,69.48
2023-03-03T06:02:27.523Z,69.59
2023-03-03T06:03:27.698Z,69.38
2023-03-03T06:04:27.870Z,69.48
2023-03-03T06:05:28.031Z,69.59
2023-03-03T06:06:28.222Z,69.66
2023-03-03T06:07:28.389Z,69.56
2023-03-03T06:08:28.551Z,69.56
2023-03-03T06:09:28.721Z,69.45
2023-03-03T06:10:28.887Z,69.45
2023-03-03T06:11:29.052Z,69.35
2023-03-03T06:12:29.241Z,69.14
2023-03-03T06:13:29.370Z,69.24
2023-03-03T06:14:29.552Z,69.24
2023-03-03T06:15:29.728Z,69.27
2023-03-03T06:16:29.920Z,69.38
2023-03-03T06:17:30.080Z,69.17
2023-03-03T06:18:30.218Z,69.38
2023-03-03T06:19:30.395Z,69.17
2023-03-03T06:20:30.548Z,69.14
2023-03-03T06:21:30.717Z,69.14
2023-03-03T06:22:30.897Z,69.14
2023-03-03T06:23:31.065Z,69.04
2023-03-03T06:24:31.232Z,69.04
2023-03-03T06:25:31.408Z,68.93
2023-03-03T06:26:31.578Z,69.04
2023-03-03T06:27:31.759Z,69.04
2023-03-03T06:28:31.932Z,68.93
2023-03-03T06:29:32.094Z,68.93
2023-03-03T06:30:32.255Z,69.04
2023-03-03T06:31:32.464Z,68.93
2023-03-03T06:32:32.689Z,69.14
2023-03-03T06:33:32.772Z,69.45
2023-03-03T06:34:32.947Z,69.45
2023-03-03T06:35:33.114Z,69.45
2023-03-03T06:36:33.293Z,69.66
2023-03-03T06:37:33.478Z,69.76
2023-03-03T06:38:33.658Z,69.76
2023-03-03T06:39:33.822Z,69.76
2023-03-03T06:40:33.986Z,69.97
2023-03-03T06:41:34.171Z,69.76
2023-03-03T06:42:34.405Z,69.66
2023-03-03T06:43:34.562Z,69.66
2023-03-03T06:44:34.733Z,69.45
2023-03-03T06:45:34.959Z,69.56
2023-03-03T06:46:35.079Z,69.56
2023-03-03T06:47:35.262Z,69.56
2023-03-03T06:48:35.434Z,69.45
2023-03-03T06:49:35.599Z,69.56
2023-03-03T06:50:35.765Z,69.45
2023-03-03T06:51:35.937Z,69.35
2023-03-03T06:52:36.123Z,69.14
2023-03-03T06:53:36.275Z,69.24
2023-03-03T06:54:36.444Z,69.14
2023-03-03T06:55:36.622Z,69.14
2023-03-03T06:56:36.791Z,69.04
2023-03-03T06:57:36.988Z,69.04
2023-03-03T06:58:37.120Z,69.04
2023-03-03T06:59:37.288Z,69.04
2023-03-03T07:00:37.455Z,69.04
2023-03-03T07:01:37.622Z,68.93
2023-03-03T07:02:37.808Z,69.04
2023-03-03T07:03:37.974Z,70.36
2023-03-03T07:04:38.205Z,70.46
2023-03-03T07:05:38.339Z,70.67
2023-03-03T07:06:38.531Z,69.42
2023-03-03T07:07:38.716Z,69.21
2023-03-03T07:08:38.879Z,69.73
2023-03-03T07:09:39.047Z,70.25
2023-03-03T07:10:39.232Z,70.04
2023-03-03T07:11:39.381Z,69.84
2023-03-03T07:12:39.590Z,69.80
2023-03-03T07:13:39.762Z,69.08
2023-03-03T07:14:39.941Z,68.87
2023-03-03T07:15:40.090Z,68.77
2023-03-03T07:16:40.343Z,68.66
2023-03-03T07:17:40.432Z,68.98
2023-03-03T07:18:40.649Z,68.56
2023-03-03T07:19:40.795Z,68.46
2023-03-03T07:20:40.996Z,68.35
2023-03-03T07:21:41.166Z,68.25
2023-03-03T07:22:41.373Z,68.12
2023-03-03T07:23:41.526Z,68.22
2023-03-03T07:24:41.682Z,68.32
2023-03-03T07:25:41.853Z,67.80
2023-03-03T07:26:42.030Z,67.91
2023-03-03T07:27:42.195Z,67.29
2023-03-03T07:28:42.399Z,67.70
2023-03-03T07:29:42.554Z,67.70
2023-03-03T07:30:42.781Z,67.80
2023-03-03T07:31:45.322Z,67.60
2023-03-03T07:32:43.058Z,67.49
2023-03-03T07:33:43.242Z,67.49
2023-03-03T07:34:43.406Z,67.60
2023-03-03T07:35:43.614Z,67.80
2023-03-03T07:36:43.763Z,67.49
2023-03-03T07:37:43.960Z,67.91
2023-03-03T07:38:44.127Z,67.91
2023-03-03T07:39:44.292Z,68.60
2023-03-03T07:40:44.484Z,67.46
2023-03-03T07:41:44.653Z,67.46
2023-03-03T07:42:44.833Z,67.46
2023-03-03T07:43:45.015Z,67.46
2023-03-03T07:44:45.180Z,67.05
2023-03-03T07:45:45.402Z,67.36
2023-03-03T07:46:45.524Z,67.22
2023-03-03T07:47:45.703Z,67.43
2023-03-03T07:48:45.908Z,67.02
2023-03-03T07:49:46.054Z,67.33
2023-03-03T07:50:46.205Z,66.81
2023-03-03T07:51:46.395Z,66.71
2023-03-03T07:52:46.595Z,67.02
2023-03-03T07:53:46.772Z,66.91
2023-03-03T07:54:46.926Z,66.60
2023-03-03T07:55:47.108Z,67.12
2023-03-03T07:56:47.295Z,66.91
2023-03-03T07:57:47.470Z,67.02
2023-03-03T07:58:47.667Z,66.91
2023-03-03T07:59:47.793Z,66.81
2023-03-03T08:00:47.986Z,66.91
2023-03-03T08:01:48.143Z,66.78
2023-03-03T08:02:48.314Z,66.67
2023-03-03T08:03:48.511Z,66.47
2023-03-03T08:04:48.780Z,66.39
2023-03-03T08:05:48.834Z,66.29
2023-03-03T08:06:49.023Z,66.81
2023-03-03T08:07:49.175Z,66.78
2023-03-03T08:08:49.373Z,66.78
2023-03-03T08:09:49.524Z,66.88
2023-03-03T08:10:49.768Z,66.67
2023-03-03T08:11:49.858Z,66.88
2023-03-03T08:12:50.160Z,66.57
2023-03-03T08:13:50.225Z,66.67
2023-03-03T08:14:50.365Z,66.57
2023-03-03T08:15:50.563Z,66.57
2023-03-03T08:16:50.726Z,66.36
2023-03-03T08:17:50.891Z,66.36
2023-03-03T08:18:51.080Z,66.36
2023-03-03T08:19:51.239Z,66.26
2023-03-03T08:20:51.426Z,66.06
2023-03-03T08:21:51.589Z,66.06
2023-03-03T08:22:51.775Z,65.95
2023-03-03T08:23:51.947Z,65.85
2023-03-03T08:24:52.125Z,66.06
2023-03-03T08:25:52.360Z,66.23
2023-03-03T08:26:52.473Z,66.03
2023-03-03T08:27:52.616Z,65.92
2023-03-03T08:28:52.815Z,65.92
2023-03-03T08:29:52.955Z,65.82
2023-03-03T08:31:02.718Z,65.82
2023-03-03T08:31:54.363Z,65.61
2023-03-03T08:32:53.507Z,65.89
2023-03-03T08:33:53.652Z,65.79
2023-03-03T08:34:53.821Z,65.79
2023-03-03T08:35:54.021Z,65.79
2023-03-03T08:36:54.159Z,65.27
2023-03-03T08:37:54.328Z,65.48
2023-03-03T08:38:54.514Z,65.27
2023-03-03T08:39:54.691Z,64.93
2023-03-03T08:40:54.814Z,65.03
2023-03-03T08:41:54.997Z,64.83
2023-03-03T08:42:55.165Z,64.93
2023-03-03T08:43:55.353Z,64.73
2023-03-03T08:44:55.534Z,64.31
2023-03-03T08:45:55.686Z,64.42
2023-03-03T08:46:55.881Z,63.79
2023-03-03T08:47:56.068Z,64.00
2023-03-03T08:48:56.257Z,64.11
2023-03-03T08:49:56.436Z,64.07
2023-03-03T08:50:56.619Z,64.18
2023-03-03T08:51:56.759Z,63.97
2023-03-03T08:52:56.956Z,64.07
2023-03-03T08:53:57.109Z,63.87
2023-03-03T08:54:57.299Z,63.67
2023-03-03T08:55:57.428Z,63.77
2023-03-03T08:56:57.609Z,64.07
2023-03-03T08:57:57.820Z,63.77
2023-03-03T08:59:02.841Z,63.56
2023-03-03T08:59:59.099Z,63.67
2023-03-03T09:00:58.288Z,63.43
2023-03-03T09:01:58.467Z,63.32
2023-03-03T09:02:58.639Z,63.12
2023-03-03T09:03:58.887Z,63.01
2023-03-03T09:04:59.011Z,63.12
2023-03-03T09:05:59.212Z,63.01
2023-03-03T09:06:59.330Z,63.01
2023-03-03T09:07:59.524Z,63.01
2023-03-03T09:08:59.740Z,63.19
2023-03-03T09:09:59.914Z,62.78
2023-03-03T09:11:00.038Z,62.99
2023-03-03T09:12:00.211Z,62.78
2023-03-03T09:13:00.387Z,62.44
2023-03-03T09:14:00.571Z,62.44
2023-03-03T09:15:00.843Z,62.54
2023-03-03T09:16:01.000Z,62.03
2023-03-03T09:17:01.087Z,62.13
2023-03-03T09:18:01.281Z,62.21
2023-03-03T09:19:01.485Z,61.41
2023-03-03T09:20:01.658Z,62.13
2023-03-03T09:21:01.784Z,62.00
2023-03-03T09:22:01.971Z,62.00
2023-03-03T09:23:02.200Z,62.21
2023-03-03T09:24:02.331Z,62.00
2023-03-03T09:25:02.478Z,62.00
2023-03-03T09:26:02.655Z,61.69
2023-03-03T09:27:02.882Z,61.80
2023-03-03T09:28:02.995Z,61.80
2023-03-03T09:29:03.195Z,61.59
2023-03-03T09:30:03.333Z,61.59
2023-03-03T09:31:05.251Z,61.38
2023-03-03T09:32:03.785Z,61.69
2023-03-03T09:33:03.896Z,62.93
2023-03-03T09:34:04.044Z,64.06
2023-03-03T09:35:04.224Z,62.72
2023-03-03T09:36:04.374Z,61.87
2023-03-03T09:37:04.564Z,61.15
2023-03-03T09:38:04.724Z,60.74
2023-03-03T09:39:04.915Z,60.94
2023-03-03T09:40:05.091Z,61.15
2023-03-03T09:41:05.262Z,61.05
2023-03-03T09:42:05.434Z,61.05
2023-03-03T09:43:05.611Z,61.05
2023-03-03T09:44:05.808Z,60.94
2023-03-03T09:45:05.952Z,61.35
2023-03-03T09:46:06.123Z,61.33
2023-03-03T09:47:06.327Z,61.12
2023-03-03T09:48:06.484Z,61.33
2023-03-03T09:49:06.671Z,61.33
2023-03-03T09:50:06.832Z,60.71
2023-03-03T09:51:06.985Z,61.02
2023-03-03T09:52:07.171Z,60.81
2023-03-03T09:53:07.362Z,60.61
2023-03-03T09:54:07.563Z,61.02
2023-03-03T09:55:07.709Z,61.12
2023-03-03T09:56:07.935Z,61.40
2023-03-03T09:57:08.065Z,60.89
2023-03-03T09:58:11.236Z,60.47
2023-03-03T09:59:08.423Z,60.17
2023-03-03T10:00:08.600Z,60.06
2023-03-03T10:01:08.771Z,60.06
2023-03-03T10:02:08.979Z,60.37
2023-03-03T10:03:09.121Z,60.27
2023-03-03T10:04:09.359Z,60.24
2023-03-03T10:05:09.482Z,59.93
2023-03-03T10:06:09.634Z,60.24
2023-03-03T10:07:09.819Z,60.03
2023-03-03T10:08:09.953Z,59.93
2023-03-03T10:09:10.151Z,59.73
2023-03-03T10:10:10.324Z,59.73
2023-03-03T10:11:10.483Z,59.42
2023-03-03T10:12:10.638Z,59.42
2023-03-03T10:13:10.815Z,59.50
2023-03-03T10:14:11.002Z,59.29
2023-03-03T10:15:11.120Z,59.16
2023-03-03T10:16:11.331Z,58.75
2023-03-03T10:17:11.482Z,58.00
2023-03-03T10:18:11.627Z,58.51
2023-03-03T10:19:11.826Z,58.69
2023-03-03T10:20:11.992Z,57.87
2023-03-03T10:21:12.148Z,57.26
2023-03-03T10:22:12.356Z,57.05
2023-03-03T10:23:12.525Z,57.05
2023-03-03T10:24:12.710Z,57.46
2023-03-03T10:25:12.885Z,57.46
2023-03-03T10:26:13.060Z,57.98
2023-03-03T10:27:14.371Z,57.98
2023-03-03T10:28:13.407Z,58.18
2023-03-03T10:29:13.601Z,57.56
2023-03-03T10:30:13.776Z,57.05
2023-03-03T10:31:17.881Z,57.56
2023-03-03T10:32:14.650Z,57.36
2023-03-03T10:33:14.333Z,57.77
2023-03-03T10:34:14.490Z,57.26
2023-03-03T10:35:14.640Z,57.33
2023-03-03T10:36:15.433Z,57.03
2023-03-03T10:37:14.987Z,57.33
2023-03-03T10:38:15.166Z,56.62
2023-03-03T10:39:15.368Z,57.13
2023-03-03T10:40:15.508Z,56.51
2023-03-03T10:41:15.671Z,56.82
2023-03-03T10:42:15.847Z,56.92
2023-03-03T10:43:29.694Z,57.03
2023-03-03T10:44:17.243Z,56.71
2023-03-03T10:45:16.374Z,57.03
2023-03-03T10:46:16.650Z,56.49
2023-03-03T10:47:16.706Z,56.38
2023-03-03T10:48:16.889Z,56.49
2023-03-03T10:49:17.073Z,56.49
2023-03-03T10:50:17.262Z,55.98
2023-03-03T10:51:17.418Z,56.38
2023-03-03T10:52:17.599Z,56.18
2023-03-03T10:53:17.758Z,55.66
2023-03-03T10:54:17.927Z,56.28
2023-03-03T10:55:18.128Z,56.38
2023-03-03T10:56:18.275Z,56.90
2023-03-03T10:57:18.459Z,56.35
2023-03-03T10:58:18.657Z,56.46
2023-03-03T10:59:18.815Z,56.35
2023-03-03T11:00:19.050Z,56.67
2023-03-03T11:01:19.276Z,56.05
2023-03-03T11:02:19.367Z,56.05
2023-03-03T11:03:19.517Z,56.49
2023-03-03T11:04:19.712Z,56.79
2023-03-03T11:05:19.870Z,56.59
2023-03-03T11:06:20.014Z,56.79
2023-03-03T11:07:20.174Z,56.59
2023-03-03T11:08:20.357Z,56.49
2023-03-03T11:09:20.561Z,56.51
2023-03-03T11:10:20.727Z,56.92
2023-03-03T11:11:20.886Z,57.13
2023-03-03T11:12:22.639Z,57.33
2023-03-03T11:13:21.227Z,57.23
2023-03-03T11:14:21.410Z,57.77
2023-03-03T11:15:21.621Z,57.87
2023-03-03T11:16:21.816Z,58.05
2023-03-03T11:17:21.957Z,57.64
2023-03-03T11:18:25.592Z,57.43
2023-03-03T11:19:22.318Z,56.82
2023-03-03T11:20:22.534Z,57.03
2023-03-03T11:21:22.748Z,57.03
2023-03-03T11:22:22.896Z,57.23
2023-03-03T11:23:23.024Z,57.23
2023-03-03T11:24:25.122Z,56.71
2023-03-03T11:25:23.413Z,57.33
2023-03-03T11:26:23.558Z,57.03
2023-03-03T11:27:23.744Z,57.23
2023-03-03T11:28:23.938Z,57.33
2023-03-03T11:29:24.120Z,57.54
2023-03-03T11:30:24.335Z,58.05
2023-03-03T11:31:27.592Z,57.54
2023-03-03T11:32:24.694Z,58.36
2023-03-03T11:33:24.815Z,58.77
2023-03-03T11:34:25.006Z,59.08
2023-03-03T11:35:25.212Z,59.38
2023-03-03T11:36:25.367Z,58.15
2023-03-03T11:37:25.550Z,58.46
2023-03-03T11:38:25.748Z,58.36
2023-03-03T11:39:25.928Z,58.36
2023-03-03T11:40:26.143Z,58.23
2023-03-03T11:41:26.291Z,58.12
2023-03-03T11:42:26.488Z,57.92
2023-03-03T11:43:36.451Z,57.61
2023-03-03T11:44:27.803Z,57.69
2023-03-03T11:45:26.968Z,57.89
2023-03-03T11:46:27.152Z,57.07
2023-03-03T11:47:28.579Z,56.77
2023-03-03T11:48:27.467Z,56.87
2023-03-03T11:49:27.621Z,56.84
2023-03-03T11:50:27.852Z,56.54
2023-03-03T11:51:27.999Z,56.74
2023-03-03T11:52:28.200Z,56.02
2023-03-03T11:53:28.358Z,56.64
2023-03-03T11:54:28.554Z,56.43
2023-03-03T11:55:28.760Z,56.02
2023-03-03T11:56:28.895Z,56.02
2023-03-03T11:57:29.043Z,56.02
2023-03-03T11:58:29.216Z,56.02
2023-03-03T11:59:29.365Z,56.43
2023-03-03T12:00:29.582Z,57.15
2023-03-03T12:01:29.716Z,56.64
2023-03-03T12:02:29.946Z,55.92
2023-03-03T12:03:30.085Z,55.92
2023-03-03T12:04:30.243Z,56.23
2023-03-03T12:05:30.470Z,55.72
2023-03-03T12:06:30.576Z,55.51
2023-03-03T12:07:30.733Z,55.33
2023-03-03T12:08:30.915Z,55.94
2023-03-03T12:09:31.112Z,56.15
2023-03-03T12:10:31.282Z,55.94
2023-03-03T12:11:31.423Z,56.02
2023-03-03T12:12:31.621Z,55.72
2023-03-03T12:13:31.780Z,56.23
2023-03-03T12:14:31.973Z,55.92
2023-03-03T12:15:32.190Z,55.51
2023-03-03T12:16:32.322Z,56.02
2023-03-03T12:17:32.503Z,55.85
2023-03-03T12:18:32.649Z,56.05
2023-03-03T12:19:32.804Z,55.94
2023-03-03T12:20:32.998Z,55.85
2023-03-03T12:21:33.247Z,56.05
2023-03-03T12:22:33.324Z,56.56
2023-03-03T12:23:33.492Z,56.77
2023-03-03T12:24:33.678Z,56.46
2023-03-03T12:25:33.847Z,56.56
2023-03-03T12:26:34.005Z,56.64
2023-03-03T12:27:34.165Z,56.23
2023-03-03T12:28:34.341Z,56.23
2023-03-03T12:29:34.504Z,56.02
2023-03-03T12:30:34.705Z,56.13
2023-03-03T12:31:34.923Z,55.82
2023-03-03T12:32:35.049Z,55.72
2023-03-03T12:33:35.165Z,55.62
2023-03-03T12:34:35.338Z,55.72
2023-03-03T12:35:35.640Z,55.62
2023-03-03T12:36:35.697Z,55.41
2023-03-03T12:37:35.953Z,55.72
2023-03-03T12:38:36.057Z,55.10
2023-03-03T12:39:36.216Z,55.62
2023-03-03T12:40:36.405Z,55.58
2023-03-03T12:41:36.575Z,55.69
2023-03-03T12:42:36.734Z,55.38
2023-03-03T12:43:36.910Z,55.79
2023-03-03T12:44:37.077Z,55.79
2023-03-03T12:45:37.279Z,55.58
2023-03-03T12:46:37.452Z,55.49
2023-03-03T12:47:37.606Z,55.08
2023-03-03T12:48:37.800Z,55.49
2023-03-03T12:49:44.086Z,55.66
2023-03-03T12:50:39.146Z,55.46
2023-03-03T12:51:38.288Z,54.85
2023-03-03T12:52:38.488Z,54.44
2023-03-03T12:53:38.679Z,54.74
2023-03-03T12:54:38.867Z,54.46